sensor_id;sensor_type;location;lat;lon;timestamp;pressure;altitude;pressure_sealevel;temperature;humidity
9893;BME280;4985;49.092;8.542;2022-08-07T00:01:00;99905.12;;;22.81;32.89
9893;BME280;4985;49.092;8.542;2022-08-07T00:05:54;99909.53;;;22.75;33.20
9893;BME280;4985;49.092;8.542;2022-08-07T00:08:21;99899.63;;;22.76;33.12
9893;BME280;4985;49.092;8.542;2022-08-07T00:10:48;99906.03;;;22.75;32.80
9893;BME280;4985;49.092;8.542;2022-08-07T00:13:16;99903.34;;;22.75;32.78
9893;BME280;4985;49.092;8.542;2022-08-07T00:15:43;99915.88;;;22.81;32.57
9893;BME280;4985;49.092;8.542;2022-08-07T00:18:10;99902.84;;;22.84;32.43
9893;BME280;4985;49.092;8.542;2022-08-07T00:20:37;99913.84;;;22.76;32.20
9893;BME280;4985;49.092;8.542;2022-08-07T00:23:06;99913.25;;;22.74;32.18
9893;BME280;4985;49.092;8.542;2022-08-07T00:25:32;99910.97;;;22.78;31.70
9893;BME280;4985;49.092;8.542;2022-08-07T00:27:59;99907.31;;;22.72;31.42
9893;BME280;4985;49.092;8.542;2022-08-07T00:30:26;99904.84;;;22.71;31.61
9893;BME280;4985;49.092;8.542;2022-08-07T00:32:53;99903.69;;;22.66;31.78
9893;BME280;4985;49.092;8.542;2022-08-07T00:35:20;99892.84;;;22.43;31.99
9893;BME280;4985;49.092;8.542;2022-08-07T00:37:47;99901.44;;;22.63;31.70
9893;BME280;4985;49.092;8.542;2022-08-07T00:40:15;99901.37;;;22.52;31.82
9893;BME280;4985;49.092;8.542;2022-08-07T00:42:42;99888.38;;;22.37;31.93
9893;BME280;4985;49.092;8.542;2022-08-07T00:45:10;99903.94;;;22.47;31.77
9893;BME280;4985;49.092;8.542;2022-08-07T00:47:37;99905.09;;;22.51;31.72
9893;BME280;4985;49.092;8.542;2022-08-07T00:50:05;99903.94;;;22.47;31.79
9893;BME280;4985;49.092;8.542;2022-08-07T00:52:32;99897.06;;;22.51;31.67
9893;BME280;4985;49.092;8.542;2022-08-07T00:54:59;99894.03;;;22.47;31.29
9893;BME280;4985;49.092;8.542;2022-08-07T00:57:27;99896.53;;;22.42;31.31
9893;BME280;4985;49.092;8.542;2022-08-07T00:59:53;99896.41;;;22.37;31.47
9893;BME280;4985;49.092;8.542;2022-08-07T01:02:21;99887.41;;;22.31;31.71
9893;BME280;4985;49.092;8.542;2022-08-07T01:04:48;99883.00;;;22.37;31.56
9893;BME280;4985;49.092;8.542;2022-08-07T01:07:15;99881.72;;;22.40;31.29
9893;BME280;4985;49.092;8.542;2022-08-07T01:09:42;99892.16;;;22.29;31.28
9893;BME280;4985;49.092;8.542;2022-08-07T01:12:08;99899.56;;;22.34;31.16
9893;BME280;4985;49.092;8.542;2022-08-07T01:14:37;99899.03;;;22.25;30.93
9893;BME280;4985;49.092;8.542;2022-08-07T01:17:04;99905.91;;;22.21;31.06
9893;BME280;4985;49.092;8.542;2022-08-07T01:19:31;99904.69;;;22.17;31.09
9893;BME280;4985;49.092;8.542;2022-08-07T01:22:01;99902.13;;;22.04;31.17
9893;BME280;4985;49.092;8.542;2022-08-07T01:24:28;99893.84;;;22.05;31.16
9893;BME280;4985;49.092;8.542;2022-08-07T01:26:56;99902.94;;;22.04;31.17
9893;BME280;4985;49.092;8.542;2022-08-07T01:29:23;99898.31;;;21.93;31.46
9893;BME280;4985;49.092;8.542;2022-08-07T01:31:50;99898.53;;;21.92;31.72
9893;BME280;4985;49.092;8.542;2022-08-07T01:34:18;99895.50;;;21.88;32.02
9893;BME280;4985;49.092;8.542;2022-08-07T01:36:45;99899.53;;;21.97;31.90
9893;BME280;4985;49.092;8.542;2022-08-07T01:39:15;99906.22;;;21.88;32.26
9893;BME280;4985;49.092;8.542;2022-08-07T01:41:42;99906.03;;;21.83;32.36
9893;BME280;4985;49.092;8.542;2022-08-07T01:44:09;99909.31;;;21.85;32.30
9893;BME280;4985;49.092;8.542;2022-08-07T01:46:38;99901.00;;;21.75;32.45
9893;BME280;4985;49.092;8.542;2022-08-07T01:49:05;99905.44;;;21.81;32.36
9893;BME280;4985;49.092;8.542;2022-08-07T01:51:32;99901.28;;;21.85;32.36
9893;BME280;4985;49.092;8.542;2022-08-07T01:54:02;99903.06;;;21.73;32.72
9893;BME280;4985;49.092;8.542;2022-08-07T01:56:40;99900.53;;;21.78;32.56
9893;BME280;4985;49.092;8.542;2022-08-07T01:59:13;99902.81;;;21.74;32.60
9893;BME280;4985;49.092;8.542;2022-08-07T02:01:43;99907.16;;;21.75;32.56
9893;BME280;4985;49.092;8.542;2022-08-07T02:04:15;99893.78;;;21.75;32.70
9893;BME280;4985;49.092;8.542;2022-08-07T02:06:44;99888.47;;;21.69;32.74
9893;BME280;4985;49.092;8.542;2022-08-07T02:09:14;99888.69;;;21.67;32.91
9893;BME280;4985;49.092;8.542;2022-08-07T02:11:45;99887.06;;;21.66;33.05
9893;BME280;4985;49.092;8.542;2022-08-07T02:14:15;99893.22;;;21.67;33.10
9893;BME280;4985;49.092;8.542;2022-08-07T02:16:45;99887.50;;;21.63;33.19
9893;BME280;4985;49.092;8.542;2022-08-07T02:19:13;99887.69;;;21.62;33.26
9893;BME280;4985;49.092;8.542;2022-08-07T02:21:42;99881.28;;;21.63;33.40
9893;BME280;4985;49.092;8.542;2022-08-07T02:24:11;99862.16;;;21.59;33.37
9893;BME280;4985;49.092;8.542;2022-08-07T02:26:39;99872.53;;;21.56;33.55
9893;BME280;4985;49.092;8.542;2022-08-07T02:29:09;99876.66;;;21.51;33.69
9893;BME280;4985;49.092;8.542;2022-08-07T02:31:36;99874.19;;;21.50;33.73
9893;BME280;4985;49.092;8.542;2022-08-07T02:34:04;99868.44;;;21.53;33.64
9893;BME280;4985;49.092;8.542;2022-08-07T02:36:31;99862.25;;;21.53;33.63
9893;BME280;4985;49.092;8.542;2022-08-07T02:39:00;99849.28;;;21.49;33.68
9893;BME280;4985;49.092;8.542;2022-08-07T02:41:29;99856.28;;;21.50;33.70
9893;BME280;4985;49.092;8.542;2022-08-07T02:43:57;99857.09;;;21.51;33.65
9893;BME280;4985;49.092;8.542;2022-08-07T02:46:28;99861.03;;;21.48;33.71
9893;BME280;4985;49.092;8.542;2022-08-07T02:48:55;99855.34;;;21.38;33.86
9893;BME280;4985;49.092;8.542;2022-08-07T02:51:23;99866.66;;;21.40;33.83
9893;BME280;4985;49.092;8.542;2022-08-07T02:53:53;99866.88;;;21.39;33.93
9893;BME280;4985;49.092;8.542;2022-08-07T02:56:22;99858.34;;;21.48;33.83
9893;BME280;4985;49.092;8.542;2022-08-07T02:58:52;99853.28;;;21.40;33.79
9893;BME280;4985;49.092;8.542;2022-08-07T03:01:20;99847.53;;;21.37;33.72
9893;BME280;4985;49.092;8.542;2022-08-07T03:03:51;99839.13;;;21.33;33.77
9893;BME280;4985;49.092;8.542;2022-08-07T03:06:19;99833.59;;;21.28;33.88
9893;BME280;4985;49.092;8.542;2022-08-07T03:08:46;99831.69;;;21.35;34.07
9893;BME280;4985;49.092;8.542;2022-08-07T03:11:13;99837.19;;;21.40;33.85
9893;BME280;4985;49.092;8.542;2022-08-07T03:13:42;99830.06;;;21.34;33.83
9893;BME280;4985;49.092;8.542;2022-08-07T03:16:09;99834.03;;;21.25;33.98
9893;BME280;4985;49.092;8.542;2022-08-07T03:18:36;99840.81;;;21.28;33.87
9893;BME280;4985;49.092;8.542;2022-08-07T03:21:05;99841.69;;;21.21;33.95
9893;BME280;4985;49.092;8.542;2022-08-07T03:23:33;99846.66;;;21.18;34.07
9893;BME280;4985;49.092;8.542;2022-08-07T03:26:02;99853.25;;;21.15;34.08
9893;BME280;4985;49.092;8.542;2022-08-07T03:28:29;99844.41;;;21.15;34.26
9893;BME280;4985;49.092;8.542;2022-08-07T03:30:57;99844.41;;;21.15;34.43
9893;BME280;4985;49.092;8.542;2022-08-07T03:33:39;99860.31;;;21.10;34.69
9893;BME280;4985;49.092;8.542;2022-08-07T03:36:08;99856.25;;;21.01;34.89
9893;BME280;4985;49.092;8.542;2022-08-07T03:38:37;99860.41;;;20.97;35.00
9893;BME280;4985;49.092;8.542;2022-08-07T03:41:05;99862.44;;;21.01;34.95
9893;BME280;4985;49.092;8.542;2022-08-07T03:43:33;99862.66;;;21.00;34.98
9893;BME280;4985;49.092;8.542;2022-08-07T03:46:01;99869.47;;;20.96;35.13
9893;BME280;4985;49.092;8.542;2022-08-07T03:48:29;99864.13;;;20.96;35.13
9893;BME280;4985;49.092;8.542;2022-08-07T03:50:57;99866.16;;;20.93;35.20
9893;BME280;4985;49.092;8.542;2022-08-07T03:53:26;99870.50;;;20.94;35.21
9893;BME280;4985;49.092;8.542;2022-08-07T03:55:53;99866.84;;;20.89;35.38
9893;BME280;4985;49.092;8.542;2022-08-07T03:58:21;99876.94;;;20.87;35.43
9893;BME280;4985;49.092;8.542;2022-08-07T04:00:48;99882.31;;;20.80;35.59
9893;BME280;4985;49.092;8.542;2022-08-07T04:03:18;99869.34;;;20.46;36.33
9893;BME280;4985;49.092;8.542;2022-08-07T04:05:45;99861.91;;;20.48;36.42
9893;BME280;4985;49.092;8.542;2022-08-07T04:08:13;99872.94;;;20.64;36.23
9893;BME280;4985;49.092;8.542;2022-08-07T04:10:42;99866.59;;;20.59;36.21
9893;BME280;4985;49.092;8.542;2022-08-07T04:13:10;99867.38;;;20.66;36.30
9893;BME280;4985;49.092;8.542;2022-08-07T04:15:38;99872.06;;;20.71;36.25
9893;BME280;4985;49.092;8.542;2022-08-07T04:18:05;99871.69;;;20.67;36.33
9893;BME280;4985;49.092;8.542;2022-08-07T04:20:32;99867.00;;;20.62;36.40
9893;BME280;4985;49.092;8.542;2022-08-07T04:22:59;99868.88;;;20.62;36.39
9893;BME280;4985;49.092;8.542;2022-08-07T04:25:26;99862.03;;;20.66;36.32
9893;BME280;4985;49.092;8.542;2022-08-07T04:27:54;99868.41;;;20.65;36.36
9893;BME280;4985;49.092;8.542;2022-08-07T04:30:21;99868.88;;;20.55;36.59
9893;BME280;4985;49.092;8.542;2022-08-07T04:32:48;99869.69;;;20.56;36.57
9893;BME280;4985;49.092;8.542;2022-08-07T04:35:15;99879.37;;;20.57;36.43
9893;BME280;4985;49.092;8.542;2022-08-07T04:37:42;99884.53;;;20.52;36.52
9893;BME280;4985;49.092;8.542;2022-08-07T04:40:10;99883.12;;;20.43;36.74
9893;BME280;4985;49.092;8.542;2022-08-07T04:42:37;99889.06;;;20.38;36.85
9893;BME280;4985;49.092;8.542;2022-08-07T04:45:06;99890.94;;;20.37;36.89
9893;BME280;4985;49.092;8.542;2022-08-07T04:47:42;99891.34;;;20.41;36.78
9893;BME280;4985;49.092;8.542;2022-08-07T04:50:14;99896.06;;;20.46;36.75
9893;BME280;4985;49.092;8.542;2022-08-07T04:52:50;99899.00;;;20.31;37.09
9893;BME280;4985;49.092;8.542;2022-08-07T04:55:22;99894.69;;;20.23;37.26
9893;BME280;4985;49.092;8.542;2022-08-07T04:57:55;99897.81;;;20.14;37.55
9893;BME280;4985;49.092;8.542;2022-08-07T05:00:35;99907.50;;;20.08;37.70
9893;BME280;4985;49.092;8.542;2022-08-07T05:03:11;99901.94;;;20.03;37.87
9893;BME280;4985;49.092;8.542;2022-08-07T05:05:44;99903.59;;;20.04;37.90
9893;BME280;4985;49.092;8.542;2022-08-07T05:08:19;99907.28;;;20.03;37.96
9893;BME280;4985;49.092;8.542;2022-08-07T05:10:50;99900.31;;;20.02;37.95
9893;BME280;4985;49.092;8.542;2022-08-07T05:13:24;99906.09;;;19.79;38.53
9893;BME280;4985;49.092;8.542;2022-08-07T05:15:55;99904.03;;;19.94;38.32
9893;BME280;4985;49.092;8.542;2022-08-07T05:18:27;99905.66;;;20.09;38.03
9893;BME280;4985;49.092;8.542;2022-08-07T05:20:56;99902.75;;;20.17;37.88
9893;BME280;4985;49.092;8.542;2022-08-07T05:23:32;99903.97;;;20.14;37.99
9893;BME280;4985;49.092;8.542;2022-08-07T05:26:03;99901.50;;;20.13;38.05
9893;BME280;4985;49.092;8.542;2022-08-07T05:28:32;99916.31;;;20.15;38.14
9893;BME280;4985;49.092;8.542;2022-08-07T05:31:02;99913.62;;;20.15;38.08
9893;BME280;4985;49.092;8.542;2022-08-07T05:33:30;99907.28;;;20.16;38.02
9893;BME280;4985;49.092;8.542;2022-08-07T05:36:00;99912.19;;;20.13;38.11
9893;BME280;4985;49.092;8.542;2022-08-07T05:38:27;99907.28;;;20.16;38.01
9893;BME280;4985;49.092;8.542;2022-08-07T05:40:55;99907.28;;;20.16;37.99
9893;BME280;4985;49.092;8.542;2022-08-07T05:43:22;99901.06;;;20.22;38.04
9893;BME280;4985;49.092;8.542;2022-08-07T05:45:49;99907.88;;;20.18;38.10
9893;BME280;4985;49.092;8.542;2022-08-07T05:48:18;99905.81;;;20.20;38.09
9893;BME280;4985;49.092;8.542;2022-08-07T05:50:46;99912.38;;;20.31;37.96
9893;BME280;4985;49.092;8.542;2022-08-07T05:53:13;99918.72;;;20.36;38.00
9893;BME280;4985;49.092;8.542;2022-08-07T05:55:39;99916.22;;;20.42;37.88
9893;BME280;4985;49.092;8.542;2022-08-07T05:58:08;99922.00;;;20.45;37.74
9893;BME280;4985;49.092;8.542;2022-08-07T06:00:36;99925.28;;;20.47;37.67
9893;BME280;4985;49.092;8.542;2022-08-07T06:03:04;99923.84;;;20.51;37.60
9893;BME280;4985;49.092;8.542;2022-08-07T06:05:33;99924.22;;;20.55;37.52
9893;BME280;4985;49.092;8.542;2022-08-07T06:08:00;99925.87;;;20.56;37.53
9893;BME280;4985;49.092;8.542;2022-08-07T06:10:28;99922.75;;;20.59;37.45
9893;BME280;4985;49.092;8.542;2022-08-07T06:12:55;99932.25;;;20.61;37.43
9893;BME280;4985;49.092;8.542;2022-08-07T06:15:22;99934.25;;;20.66;37.40
9893;BME280;4985;49.092;8.542;2022-08-07T06:17:50;99933.22;;;20.67;37.36
9893;BME280;4985;49.092;8.542;2022-08-07T06:20:17;99930.13;;;20.70;37.34
9893;BME280;4985;49.092;8.542;2022-08-07T06:22:46;99937.75;;;20.73;37.32
9893;BME280;4985;49.092;8.542;2022-08-07T06:25:13;99937.53;;;20.75;37.33
9893;BME280;4985;49.092;8.542;2022-08-07T06:27:40;99940.81;;;20.77;37.34
9893;BME280;4985;49.092;8.542;2022-08-07T06:30:08;99936.28;;;20.77;37.28
9893;BME280;4985;49.092;8.542;2022-08-07T06:32:34;99937.69;;;20.80;37.32
9893;BME280;4985;49.092;8.542;2022-08-07T06:35:01;99943.66;;;20.82;37.32
9893;BME280;4985;49.092;8.542;2022-08-07T06:37:28;99938.06;;;20.83;37.25
9893;BME280;4985;49.092;8.542;2022-08-07T06:39:56;99936.03;;;20.85;37.26
9893;BME280;4985;49.092;8.542;2022-08-07T06:42:26;99932.09;;;20.88;37.31
9893;BME280;4985;49.092;8.542;2022-08-07T06:44:55;99926.75;;;20.88;37.34
9893;BME280;4985;49.092;8.542;2022-08-07T06:47:23;99935.97;;;20.92;37.24
9893;BME280;4985;49.092;8.542;2022-08-07T06:49:50;99934.94;;;20.93;37.24
9893;BME280;4985;49.092;8.542;2022-08-07T06:52:17;99932.03;;;20.94;37.25
9893;BME280;4985;49.092;8.542;2022-08-07T06:54:45;99930.00;;;20.97;37.32
9893;BME280;4985;49.092;8.542;2022-08-07T06:57:16;99926.28;;;20.98;37.24
9893;BME280;4985;49.092;8.542;2022-08-07T06:59:46;99928.75;;;20.99;37.29
9893;BME280;4985;49.092;8.542;2022-08-07T07:02:17;99920.50;;;21.01;37.21
9893;BME280;4985;49.092;8.542;2022-08-07T07:04:45;99929.12;;;21.03;37.19
9893;BME280;4985;49.092;8.542;2022-08-07T07:07:12;99920.06;;;21.04;37.33
9893;BME280;4985;49.092;8.542;2022-08-07T07:09:43;99916.34;;;21.05;37.22
9893;BME280;4985;49.092;8.542;2022-08-07T07:12:22;99913.44;;;21.06;37.23
9893;BME280;4985;49.092;8.542;2022-08-07T07:14:52;99916.75;;;21.08;37.23
9893;BME280;4985;49.092;8.542;2022-08-07T07:17:25;99919.19;;;21.10;37.18
9893;BME280;4985;49.092;8.542;2022-08-07T07:19:56;99917.13;;;21.12;37.24
9893;BME280;4985;49.092;8.542;2022-08-07T07:22:26;99913.41;;;21.13;37.22
9893;BME280;4985;49.092;8.542;2022-08-07T07:24:54;99923.06;;;21.14;37.22
9893;BME280;4985;49.092;8.542;2022-08-07T07:27:27;99917.50;;;21.15;37.23
9893;BME280;4985;49.092;8.542;2022-08-07T07:29:57;99925.31;;;21.17;37.22
9893;BME280;4985;49.092;8.542;2022-08-07T07:32:26;99914.59;;;21.17;37.22
9893;BME280;4985;49.092;8.542;2022-08-07T07:34:57;99912.56;;;21.19;37.24
9893;BME280;4985;49.092;8.542;2022-08-07T07:37:25;99908.63;;;21.21;37.21
9893;BME280;4985;49.092;8.542;2022-08-07T07:39:57;99903.25;;;21.21;37.18
9893;BME280;4985;49.092;8.542;2022-08-07T07:42:26;99909.22;;;21.23;37.22
9893;BME280;4985;49.092;8.542;2022-08-07T07:44:54;99910.03;;;21.24;37.18
9893;BME280;4985;49.092;8.542;2022-08-07T07:47:22;99911.66;;;21.25;37.24
9893;BME280;4985;49.092;8.542;2022-08-07T07:49:51;99905.31;;;21.26;37.17
9893;BME280;4985;49.092;8.542;2022-08-07T07:52:19;99909.63;;;21.27;37.19
9893;BME280;4985;49.092;8.542;2022-08-07T07:54:47;99905.91;;;21.28;37.15
9893;BME280;4985;49.092;8.542;2022-08-07T07:57:16;99902.19;;;21.29;37.17
9893;BME280;4985;49.092;8.542;2022-08-07T07:59:47;99909.22;;;21.30;37.27
9893;BME280;4985;49.092;8.542;2022-08-07T08:02:16;99912.47;;;21.32;37.17
9893;BME280;4985;49.092;8.542;2022-08-07T08:04:44;99912.25;;;21.34;37.20
9893;BME280;4985;49.092;8.542;2022-08-07T08:07:12;99901.56;;;21.34;37.17
9893;BME280;4985;49.092;8.542;2022-08-07T08:09:40;99899.47;;;21.36;37.22
9893;BME280;4985;49.092;8.542;2022-08-07T08:12:08;99899.25;;;21.37;37.15
9893;BME280;4985;49.092;8.542;2022-08-07T08:14:35;99899.25;;;21.37;37.16
9893;BME280;4985;49.092;8.542;2022-08-07T08:17:04;99903.34;;;21.40;37.15
9893;BME280;4985;49.092;8.542;2022-08-07T08:19:33;99894.50;;;21.39;37.17
9893;BME280;4985;49.092;8.542;2022-08-07T08:22:01;99890.75;;;21.40;37.13
9893;BME280;4985;49.092;8.542;2022-08-07T08:24:51;99895.13;;;21.41;37.24
9893;BME280;4985;49.092;8.542;2022-08-07T08:27:37;99895.13;;;21.41;37.14
9893;BME280;4985;49.092;8.542;2022-08-07T08:30:07;99897.56;;;21.43;37.28
9893;BME280;4985;49.092;8.542;2022-08-07T08:32:40;99892.00;;;21.44;37.27
9893;BME280;4985;49.092;8.542;2022-08-07T08:35:09;99889.31;;;21.44;37.24
9893;BME280;4985;49.092;8.542;2022-08-07T08:37:37;99890.94;;;21.45;37.27
9893;BME280;4985;49.092;8.542;2022-08-07T08:40:08;99881.06;;;21.46;37.29
9893;BME280;4985;49.092;8.542;2022-08-07T08:42:40;99884.31;;;21.48;37.26
9893;BME280;4985;49.092;8.542;2022-08-07T08:45:13;99885.97;;;21.49;37.28
9893;BME280;4985;49.092;8.542;2022-08-07T08:47:51;99879.56;;;21.50;37.25
9893;BME280;4985;49.092;8.542;2022-08-07T08:50:24;99879.34;;;21.51;37.29
9893;BME280;4985;49.092;8.542;2022-08-07T08:52:57;99881.19;;;21.51;37.30
9893;BME280;4985;49.092;8.542;2022-08-07T08:55:31;99878.31;;;21.53;37.31
9893;BME280;4985;49.092;8.542;2022-08-07T08:58:05;99875.19;;;21.56;37.36
9893;BME280;4985;49.092;8.542;2022-08-07T09:00:41;99861.84;;;21.49;37.33
9893;BME280;4985;49.092;8.542;2022-08-07T09:03:18;99880.09;;;21.59;37.34
9893;BME280;4985;49.092;8.542;2022-08-07T09:05:53;99860.59;;;21.51;37.29
9893;BME280;4985;49.092;8.542;2022-08-07T09:08:28;99863.00;;;21.60;37.28
9893;BME280;4985;49.092;8.542;2022-08-07T09:11:04;99858.44;;;21.60;37.30
9893;BME280;4985;49.092;8.542;2022-08-07T09:13:38;99856.59;;;21.61;37.37
9893;BME280;4985;49.092;8.542;2022-08-07T09:16:12;99854.50;;;21.63;37.31
9893;BME280;4985;49.092;8.542;2022-08-07T09:18:58;99846.31;;;21.58;37.35
9893;BME280;4985;49.092;8.542;2022-08-07T09:21:32;99857.81;;;21.65;37.37
9893;BME280;4985;49.092;8.542;2022-08-07T09:24:05;99866.44;;;21.67;37.27
9893;BME280;4985;49.092;8.542;2022-08-07T09:26:43;99858.16;;;21.68;37.24
9893;BME280;4985;49.092;8.542;2022-08-07T09:29:19;99862.72;;;21.68;37.35
9893;BME280;4985;49.092;8.542;2022-08-07T09:31:55;99860.62;;;21.70;37.35
9893;BME280;4985;49.092;8.542;2022-08-07T09:34:30;99857.94;;;21.70;37.28
9893;BME280;4985;49.092;8.542;2022-08-07T09:37:05;99855.28;;;21.70;37.35
9893;BME280;4985;49.092;8.542;2022-08-07T09:39:44;99852.12;;;21.73;37.37
9893;BME280;4985;49.092;8.542;2022-08-07T09:42:25;99849.47;;;21.73;37.32
9893;BME280;4985;49.092;8.542;2022-08-07T09:45:05;99852.75;;;21.75;37.39
9893;BME280;4985;49.092;8.542;2022-08-07T09:47:37;99858.94;;;21.75;37.37
9893;BME280;4985;49.092;8.542;2022-08-07T09:50:17;99852.75;;;21.75;37.45
9893;BME280;4985;49.092;8.542;2022-08-07T09:52:51;99851.50;;;21.77;37.33
9893;BME280;4985;49.092;8.542;2022-08-07T09:55:23;99846.13;;;21.77;37.41
9893;BME280;4985;49.092;8.542;2022-08-07T09:58:23;99838.69;;;21.79;37.28
9893;BME280;4985;49.092;8.542;2022-08-07T10:01:06;99827.97;;;21.79;37.37
9893;BME280;4985;49.092;8.542;2022-08-07T10:03:58;99841.13;;;21.81;37.36
9893;BME280;4985;49.092;8.542;2022-08-07T10:06:43;99824.59;;;21.84;37.27
9893;BME280;4985;49.092;8.542;2022-08-07T10:09:31;99821.91;;;21.84;37.33
9893;BME280;4985;49.092;8.542;2022-08-07T10:12:13;99821.91;;;21.84;37.30
9893;BME280;4985;49.092;8.542;2022-08-07T10:15:03;99814.94;;;21.83;37.40
9893;BME280;4985;49.092;8.542;2022-08-07T10:17:52;99812.00;;;21.85;37.37
9893;BME280;4985;49.092;8.542;2022-08-07T10:20:29;99808.09;;;21.87;37.31
9893;BME280;4985;49.092;8.542;2022-08-07T10:23:41;99798.19;;;21.88;37.37
9893;BME280;4985;49.092;8.542;2022-08-07T10:26:33;99797.97;;;21.89;37.32
9893;BME280;4985;49.092;8.542;2022-08-07T10:29:27;99791.56;;;21.90;37.26
9893;BME280;4985;49.092;8.542;2022-08-07T10:32:11;99793.19;;;21.91;37.31
9893;BME280;4985;49.092;8.542;2022-08-07T10:34:51;99786.19;;;21.90;37.35
9893;BME280;4985;49.092;8.542;2022-08-07T10:37:28;99792.16;;;21.92;37.34
9893;BME280;4985;49.092;8.542;2022-08-07T10:40:09;99772.63;;;21.85;37.33
9893;BME280;4985;49.092;8.542;2022-08-07T10:42:40;99776.66;;;21.94;37.33
9893;BME280;4985;49.092;8.542;2022-08-07T10:45:17;99775.38;;;21.97;37.32
9893;BME280;4985;49.092;8.542;2022-08-07T10:47:53;99781.59;;;21.97;37.31
9893;BME280;4985;49.092;8.542;2022-08-07T10:50:28;99770.88;;;21.97;37.31
9893;BME280;4985;49.092;8.542;2022-08-07T10:53:04;99781.34;;;21.99;37.28
9893;BME280;4985;49.092;8.542;2022-08-07T10:55:43;99774.72;;;22.01;37.17
9893;BME280;4985;49.092;8.542;2022-08-07T10:58:33;99767.25;;;22.03;37.17
9893;BME280;4985;49.092;8.542;2022-08-07T11:01:18;99765.41;;;22.04;37.16
9893;BME280;4985;49.092;8.542;2022-08-07T11:03:50;99757.13;;;22.05;37.20
9893;BME280;4985;49.092;8.542;2022-08-07T11:06:22;99761.47;;;22.06;37.15
9893;BME280;4985;49.092;8.542;2022-08-07T11:08:55;99758.78;;;22.06;37.17
9893;BME280;4985;49.092;8.542;2022-08-07T11:11:31;99757.75;;;22.07;37.17
9893;BME280;4985;49.092;8.542;2022-08-07T11:14:03;99756.72;;;22.08;37.12
9893;BME280;4985;49.092;8.542;2022-08-07T11:16:36;99754.63;;;22.11;37.08
9893;BME280;4985;49.092;8.542;2022-08-07T11:19:06;99753.00;;;22.10;37.10
9893;BME280;4985;49.092;8.542;2022-08-07T11:24:21;99734.00;;;22.11;37.04
9893;BME280;4985;49.092;8.542;2022-08-07T11:26:56;99741.81;;;22.13;36.99
9893;BME280;4985;49.092;8.542;2022-08-07T11:29:32;99732.72;;;22.14;36.98
9893;BME280;4985;49.092;8.542;2022-08-07T11:32:06;99729.81;;;22.15;36.98
9893;BME280;4985;49.092;8.542;2022-08-07T11:34:38;99730.03;;;22.14;36.95
9893;BME280;4985;49.092;8.542;2022-08-07T11:37:14;99726.87;;;22.17;36.91
9893;BME280;4985;49.092;8.542;2022-08-07T11:39:56;99715.47;;;22.10;36.89
9893;BME280;4985;49.092;8.542;2022-08-07T11:42:33;99726.44;;;22.20;36.85
9893;BME280;4985;49.092;8.542;2022-08-07T11:45:12;99719.00;;;22.22;36.79
9893;BME280;4985;49.092;8.542;2022-08-07T11:47:56;99719.00;;;22.22;36.79
9893;BME280;4985;49.092;8.542;2022-08-07T11:50:43;99723.31;;;22.23;36.74
9893;BME280;4985;49.092;8.542;2022-08-07T11:53:21;99712.34;;;22.24;36.65
9893;BME280;4985;49.092;8.542;2022-08-07T11:56:04;99718.53;;;22.25;36.58
9893;BME280;4985;49.092;8.542;2022-08-07T11:58:42;99706.75;;;22.26;36.62
9893;BME280;4985;49.092;8.542;2022-08-07T12:01:24;99704.66;;;22.28;36.62
9893;BME280;4985;49.092;8.542;2022-08-07T12:04:08;99701.97;;;22.28;36.58
9893;BME280;4985;49.092;8.542;2022-08-07T12:06:45;99708.75;;;22.30;36.48
9893;BME280;4985;49.092;8.542;2022-08-07T12:09:18;99707.72;;;22.31;36.41
9893;BME280;4985;49.092;8.542;2022-08-07T12:11:54;99703.16;;;22.32;36.37
9893;BME280;4985;49.092;8.542;2022-08-07T12:14:26;99700.25;;;22.33;36.34
9893;BME280;4985;49.092;8.542;2022-08-07T12:16:59;99704.34;;;22.36;36.21
9893;BME280;4985;49.092;8.542;2022-08-07T12:19:39;99698.75;;;22.37;36.22
9893;BME280;4985;49.092;8.542;2022-08-07T12:22:13;99699.31;;;22.40;36.12
9893;BME280;4985;49.092;8.542;2022-08-07T12:24:47;99697.22;;;22.42;35.95
9893;BME280;4985;49.092;8.542;2022-08-07T12:27:38;99682.88;;;22.36;36.02
9893;BME280;4985;49.092;8.542;2022-08-07T12:30:09;99696.78;;;22.45;35.91
9893;BME280;4985;49.092;8.542;2022-08-07T12:32:39;99684.78;;;22.47;35.87
9893;BME280;4985;49.092;8.542;2022-08-07T12:35:09;99679.97;;;22.49;35.83
9893;BME280;4985;49.092;8.542;2022-08-07T12:37:39;99681.63;;;22.50;35.54
9893;BME280;4985;49.092;8.542;2022-08-07T12:40:08;99691.06;;;22.53;35.59
9893;BME280;4985;49.092;8.542;2022-08-07T12:42:37;99683.63;;;22.55;34.99
9893;BME280;4985;49.092;8.542;2022-08-07T12:45:11;99676.16;;;22.57;35.68
9893;BME280;4985;49.092;8.542;2022-08-07T12:47:48;99675.91;;;22.58;35.53
9893;BME280;4985;49.092;8.542;2022-08-07T12:50:21;99681.28;;;22.58;35.66
9893;BME280;4985;49.092;8.542;2022-08-07T12:52:59;99681.87;;;22.60;35.06
9893;BME280;4985;49.092;8.542;2022-08-07T12:55:33;99672.53;;;22.63;35.31
9893;BME280;4985;49.092;8.542;2022-08-07T12:58:01;99665.06;;;22.65;34.96
9893;BME280;4985;49.092;8.542;2022-08-07T13:00:39;99670.22;;;22.66;35.20
9893;BME280;4985;49.092;8.542;2022-08-07T13:03:25;99668.13;;;22.69;35.23
9893;BME280;4985;49.092;8.542;2022-08-07T13:06:05;99667.06;;;22.70;35.30
9893;BME280;4985;49.092;8.542;2022-08-07T13:08:41;99663.31;;;22.71;35.28
9893;BME280;4985;49.092;8.542;2022-08-07T13:11:22;99661.22;;;22.73;35.13
9893;BME280;4985;49.092;8.542;2022-08-07T13:13:59;99659.94;;;22.75;35.31
9893;BME280;4985;49.092;8.542;2022-08-07T13:16:34;99660.75;;;22.76;35.36
9893;BME280;4985;49.092;8.542;2022-08-07T13:19:10;99664.03;;;22.78;35.30
9893;BME280;4985;49.092;8.542;2022-08-07T13:21:40;99656.56;;;22.80;35.26
9893;BME280;4985;49.092;8.542;2022-08-07T13:24:17;99657.97;;;22.82;35.22
9893;BME280;4985;49.092;8.542;2022-08-07T13:26:59;99653.41;;;22.83;35.06
9893;BME280;4985;49.092;8.542;2022-08-07T13:29:35;99655.88;;;22.84;35.12
9893;BME280;4985;49.092;8.542;2022-08-07T13:32:11;99648.66;;;22.85;35.15
9893;BME280;4985;49.092;8.542;2022-08-07T13:34:44;99650.28;;;22.86;35.22
9893;BME280;4985;49.092;8.542;2022-08-07T13:37:16;99641.53;;;22.90;34.87
9893;BME280;4985;49.092;8.542;2022-08-07T13:39:53;99637.81;;;22.91;35.19
9893;BME280;4985;49.092;8.542;2022-08-07T13:42:24;99634.87;;;22.93;35.21
9893;BME280;4985;49.092;8.542;2022-08-07T13:44:53;99631.12;;;22.94;35.35
9893;BME280;4985;49.092;8.542;2022-08-07T13:47:25;99608.62;;;22.83;35.27
9893;BME280;4985;49.092;8.542;2022-08-07T13:49:56;99629.59;;;22.98;35.16
9893;BME280;4985;49.092;8.542;2022-08-07T13:52:25;99622.16;;;23.00;34.87